sensor_id;sensor_type;location;lat;lon;timestamp;temperature;humidity
9564;DHT22;4820;50.870;4.702;2023-05-10T00:01:52;13.60;99.90
9564;DHT22;4820;50.870;4.702;2023-05-10T00:04:18;13.60;99.90
9564;DHT22;4820;50.870;4.702;2023-05-10T00:06:44;13.60;99.90
9564;DHT22;4820;50.870;4.702;2023-05-10T00:09:10;13.60;99.90
9564;DHT22;4820;50.870;4.702;2023-05-10T00:11:35;13.60;99.90
9564;DHT22;4820;50.870;4.702;2023-05-10T00:14:01;13.70;99.90
9564;DHT22;4820;50.870;4.702;2023-05-10T00:16:27;13.70;99.90
9564;DHT22;4820;50.870;4.702;2023-05-10T00:18:53;13.70;99.90
9564;DHT22;4820;50.870;4.702;2023-05-10T00:21:18;13.70;99.90
9564;DHT22;4820;50.870;4.702;2023-05-10T00:23:44;13.70;99.90
9564;DHT22;4820;50.870;4.702;2023-05-10T00:26:10;13.70;99.90
9564;DHT22;4820;50.870;4.702;2023-05-10T00:28:36;13.70;99.90
9564;DHT22;4820;50.870;4.702;2023-05-10T00:31:02;13.70;99.90
9564;DHT22;4820;50.870;4.702;2023-05-10T00:33:27;13.70;99.90
9564;DHT22;4820;50.870;4.702;2023-05-10T00:35:53;13.70;99.90
9564;DHT22;4820;50.870;4.702;2023-05-10T00:38:19;13.60;99.90
9564;DHT22;4820;50.870;4.702;2023-05-10T00:40:45;13.60;99.90
9564;DHT22;4820;50.870;4.702;2023-05-10T00:43:11;13.60;99.90
9564;DHT22;4820;50.870;4.702;2023-05-10T00:45:40;13.60;99.90
9564;DHT22;4820;50.870;4.702;2023-05-10T00:48:07;13.60;99.90
9564;DHT22;4820;50.870;4.702;2023-05-10T00:50:34;13.60;99.90
9564;DHT22;4820;50.870;4.702;2023-05-10T00:53:00;13.60;99.90
9564;DHT22;4820;50.870;4.702;2023-05-10T00:55:27;13.60;99.90
9564;DHT22;4820;50.870;4.702;2023-05-10T00:57:53;13.60;99.90
9564;DHT22;4820;50.870;4.702;2023-05-10T01:00:19;13.60;99.90
9564;DHT22;4820;50.870;4.702;2023-05-10T01:02:45;13.60;99.90
9564;DHT22;4820;50.870;4.702;2023-05-10T01:05:12;13.60;99.90
9564;DHT22;4820;50.870;4.702;2023-05-10T01:07:38;13.60;99.90
9564;DHT22;4820;50.870;4.702;2023-05-10T01:10:06;13.60;99.90
9564;DHT22;4820;50.870;4.702;2023-05-10T01:12:35;13.70;99.90
9564;DHT22;4820;50.870;4.702;2023-05-10T01:15:05;13.70;99.90
9564;DHT22;4820;50.870;4.702;2023-05-10T01:17:31;13.70;99.90
9564;DHT22;4820;50.870;4.702;2023-05-10T01:19:57;13.70;99.90
9564;DHT22;4820;50.870;4.702;2023-05-10T01:28:28;13.70;99.90
9564;DHT22;4820;50.870;4.702;2023-05-10T01:31:08;13.70;99.90
9564;DHT22;4820;50.870;4.702;2023-05-10T01:33:40;13.60;99.90
9564;DHT22;4820;50.870;4.702;2023-05-10T01:36:23;13.60;99.90
9564;DHT22;4820;50.870;4.702;2023-05-10T01:49:55;13.50;99.90
9564;DHT22;4820;50.870;4.702;2023-05-10T01:52:35;13.50;99.90
9564;DHT22;4820;50.870;4.702;2023-05-10T01:55:04;13.50;99.90
9564;DHT22;4820;50.870;4.702;2023-05-10T01:57:35;13.50;99.90
9564;DHT22;4820;50.870;4.702;2023-05-10T02:00:03;13.60;99.90
9564;DHT22;4820;50.870;4.702;2023-05-10T02:02:36;13.60;99.90
9564;DHT22;4820;50.870;4.702;2023-05-10T02:05:05;13.60;99.90
9564;DHT22;4820;50.870;4.702;2023-05-10T02:07:32;13.60;99.90
9564;DHT22;4820;50.870;4.702;2023-05-10T02:10:00;13.60;99.90
9564;DHT22;4820;50.870;4.702;2023-05-10T02:12:27;13.60;99.90
9564;DHT22;4820;50.870;4.702;2023-05-10T02:14:55;13.60;99.90
9564;DHT22;4820;50.870;4.702;2023-05-10T02:17:22;13.60;99.90
9564;DHT22;4820;50.870;4.702;2023-05-10T02:19:49;13.50;99.90
9564;DHT22;4820;50.870;4.702;2023-05-10T02:22:17;13.50;99.90
9564;DHT22;4820;50.870;4.702;2023-05-10T02:24:44;13.60;99.90
9564;DHT22;4820;50.870;4.702;2023-05-10T02:27:11;13.60;99.90
9564;DHT22;4820;50.870;4.702;2023-05-10T02:29:38;13.60;99.90
9564;DHT22;4820;50.870;4.702;2023-05-10T02:32:04;13.60;99.90
9564;DHT22;4820;50.870;4.702;2023-05-10T02:34:31;13.60;99.90
9564;DHT22;4820;50.870;4.702;2023-05-10T02:36:59;13.60;99.90
9564;DHT22;4820;50.870;4.702;2023-05-10T02:39:28;13.60;99.90
9564;DHT22;4820;50.870;4.702;2023-05-10T02:41:55;13.60;99.90
9564;DHT22;4820;50.870;4.702;2023-05-10T02:44:23;13.70;99.90
9564;DHT22;4820;50.870;4.702;2023-05-10T02:46:49;13.70;99.90
9564;DHT22;4820;50.870;4.702;2023-05-10T02:49:15;13.70;99.90
9564;DHT22;4820;50.870;4.702;2023-05-10T02:51:45;13.70;99.90
9564;DHT22;4820;50.870;4.702;2023-05-10T02:54:19;13.70;99.90
9564;DHT22;4820;50.870;4.702;2023-05-10T02:56:57;13.70;99.90
9564;DHT22;4820;50.870;4.702;2023-05-10T02:59:23;13.70;99.90
9564;DHT22;4820;50.870;4.702;2023-05-10T03:01:49;13.70;99.90
9564;DHT22;4820;50.870;4.702;2023-05-10T03:04:14;13.70;99.90
9564;DHT22;4820;50.870;4.702;2023-05-10T03:06:41;13.70;99.90
9564;DHT22;4820;50.870;4.702;2023-05-10T03:09:07;13.70;99.90
9564;DHT22;4820;50.870;4.702;2023-05-10T03:17:39;13.70;99.90
9564;DHT22;4820;50.870;4.702;2023-05-10T03:20:10;13.70;99.90
9564;DHT22;4820;50.870;4.702;2023-05-10T03:23:02;13.70;99.90
9564;DHT22;4820;50.870;4.702;2023-05-10T03:25:31;13.70;99.90
9564;DHT22;4820;50.870;4.702;2023-05-10T03:27:57;13.70;99.90
9564;DHT22;4820;50.870;4.702;2023-05-10T03:30:24;13.70;99.90
9564;DHT22;4820;50.870;4.702;2023-05-10T03:32:50;13.70;99.90
9564;DHT22;4820;50.870;4.702;2023-05-10T03:35:16;13.70;99.90
9564;DHT22;4820;50.870;4.702;2023-05-10T03:37:42;13.70;99.90
9564;DHT22;4820;50.870;4.702;2023-05-10T03:40:08;13.70;99.90
9564;DHT22;4820;50.870;4.702;2023-05-10T03:42:34;13.70;99.90
9564;DHT22;4820;50.870;4.702;2023-05-10T03:45:00;13.70;99.90
9564;DHT22;4820;50.870;4.702;2023-05-10T03:47:25;13.70;99.90
9564;DHT22;4820;50.870;4.702;2023-05-10T03:49:51;13.70;99.90
9564;DHT22;4820;50.870;4.702;2023-05-10T03:52:17;13.60;99.90
9564;DHT22;4820;50.870;4.702;2023-05-10T03:54:43;13.60;99.90
9564;DHT22;4820;50.870;4.702;2023-05-10T03:57:09;13.50;99.90
9564;DHT22;4820;50.870;4.702;2023-05-10T03:59:35;13.50;99.90
9564;DHT22;4820;50.870;4.702;2023-05-10T04:02:01;13.30;99.90
9564;DHT22;4820;50.870;4.702;2023-05-10T04:04:26;13.20;99.90
9564;DHT22;4820;50.870;4.702;2023-05-10T04:06:52;13.10;99.90
9564;DHT22;4820;50.870;4.702;2023-05-10T04:09:18;13.00;99.90
9564;DHT22;4820;50.870;4.702;2023-05-10T04:11:43;13.00;99.90
9564;DHT22;4820;50.870;4.702;2023-05-10T04:14:09;12.90;99.90
9564;DHT22;4820;50.870;4.702;2023-05-10T04:16:36;12.90;99.90
9564;DHT22;4820;50.870;4.702;2023-05-10T04:19:02;12.80;99.90
9564;DHT22;4820;50.870;4.702;2023-05-10T04:21:27;12.80;99.90
9564;DHT22;4820;50.870;4.702;2023-05-10T04:23:53;12.80;99.90
9564;DHT22;4820;50.870;4.702;2023-05-10T04:26:19;12.80;99.90
9564;DHT22;4820;50.870;4.702;2023-05-10T04:28:45;12.80;99.90
9564;DHT22;4820;50.870;4.702;2023-05-10T04:31:11;12.80;99.90
9564;DHT22;4820;50.870;4.702;2023-05-10T04:33:37;12.80;99.90
9564;DHT22;4820;50.870;4.702;2023-05-10T04:36:03;12.80;99.90
9564;DHT22;4820;50.870;4.702;2023-05-10T04:38:29;12.80;99.90
9564;DHT22;4820;50.870;4.702;2023-05-10T04:41:06;12.80;99.90
9564;DHT22;4820;50.870;4.702;2023-05-10T04:43:33;12.80;99.90
9564;DHT22;4820;50.870;4.702;2023-05-10T04:45:58;12.80;99.90
9564;DHT22;4820;50.870;4.702;2023-05-10T04:48:24;12.80;99.90
9564;DHT22;4820;50.870;4.702;2023-05-10T04:50:50;12.80;99.90
9564;DHT22;4820;50.870;4.702;2023-05-10T04:53:16;12.80;99.90
9564;DHT22;4820;50.870;4.702;2023-05-10T04:55:42;12.90;99.90
9564;DHT22;4820;50.870;4.702;2023-05-10T04:58:09;12.90;99.90
9564;DHT22;4820;50.870;4.702;2023-05-10T05:00:34;12.90;99.90
9564;DHT22;4820;50.870;4.702;2023-05-10T05:03:00;12.90;99.90
9564;DHT22;4820;50.870;4.702;2023-05-10T05:05:26;12.90;99.90
9564;DHT22;4820;50.870;4.702;2023-05-10T05:07:52;12.90;99.90
9564;DHT22;4820;50.870;4.702;2023-05-10T05:10:18;12.90;99.90
9564;DHT22;4820;50.870;4.702;2023-05-10T05:12:43;12.90;99.90
9564;DHT22;4820;50.870;4.702;2023-05-10T05:15:09;12.90;99.90
9564;DHT22;4820;50.870;4.702;2023-05-10T05:17:37;12.90;99.90
9564;DHT22;4820;50.870;4.702;2023-05-10T05:20:03;13.00;99.90
9564;DHT22;4820;50.870;4.702;2023-05-10T05:22:29;13.00;99.90
9564;DHT22;4820;50.870;4.702;2023-05-10T05:24:55;13.00;99.90
9564;DHT22;4820;50.870;4.702;2023-05-10T05:27:22;13.00;99.90
9564;DHT22;4820;50.870;4.702;2023-05-10T05:29:53;13.00;99.90
9564;DHT22;4820;50.870;4.702;2023-05-10T05:32:20;13.00;99.90
9564;DHT22;4820;50.870;4.702;2023-05-10T05:34:46;13.00;99.90
9564;DHT22;4820;50.870;4.702;2023-05-10T05:37:15;13.00;99.90
9564;DHT22;4820;50.870;4.702;2023-05-10T05:39:41;13.00;99.90
9564;DHT22;4820;50.870;4.702;2023-05-10T05:42:11;13.00;99.90
9564;DHT22;4820;50.870;4.702;2023-05-10T05:44:37;13.00;99.90
9564;DHT22;4820;50.870;4.702;2023-05-10T05:47:03;13.00;99.90
9564;DHT22;4820;50.870;4.702;2023-05-10T05:49:29;13.00;99.90
9564;DHT22;4820;50.870;4.702;2023-05-10T05:52:02;13.00;99.90
9564;DHT22;4820;50.870;4.702;2023-05-10T05:54:27;13.00;99.90
9564;DHT22;4820;50.870;4.702;2023-05-10T05:56:54;13.10;99.90
9564;DHT22;4820;50.870;4.702;2023-05-10T05:59:21;13.00;99.90
9564;DHT22;4820;50.870;4.702;2023-05-10T06:01:47;13.10;99.90
9564;DHT22;4820;50.870;4.702;2023-05-10T06:04:13;13.10;99.90
9564;DHT22;4820;50.870;4.702;2023-05-10T06:06:39;13.10;99.90
9564;DHT22;4820;50.870;4.702;2023-05-10T06:09:04;13.10;99.90
9564;DHT22;4820;50.870;4.702;2023-05-10T06:11:32;13.10;99.90
9564;DHT22;4820;50.870;4.702;2023-05-10T06:13:58;13.10;99.90
9564;DHT22;4820;50.870;4.702;2023-05-10T06:16:24;13.10;99.90
9564;DHT22;4820;50.870;4.702;2023-05-10T06:18:50;13.20;99.90
9564;DHT22;4820;50.870;4.702;2023-05-10T06:21:16;13.20;99.90
9564;DHT22;4820;50.870;4.702;2023-05-10T06:23:42;13.30;99.90
9564;DHT22;4820;50.870;4.702;2023-05-10T06:26:08;13.30;99.90
9564;DHT22;4820;50.870;4.702;2023-05-10T06:28:34;13.40;99.90
9564;DHT22;4820;50.870;4.702;2023-05-10T06:31:01;13.40;99.90
9564;DHT22;4820;50.870;4.702;2023-05-10T06:33:26;13.40;99.90
9564;DHT22;4820;50.870;4.702;2023-05-10T06:35:52;13.50;99.90
9564;DHT22;4820;50.870;4.702;2023-05-10T06:38:18;13.60;99.90
9564;DHT22;4820;50.870;4.702;2023-05-10T06:40:44;13.70;99.90
9564;DHT22;4820;50.870;4.702;2023-05-10T06:43:10;13.70;99.90
9564;DHT22;4820;50.870;4.702;2023-05-10T06:45:36;13.80;99.90
9564;DHT22;4820;50.870;4.702;2023-05-10T06:48:01;13.90;99.90
9564;DHT22;4820;50.870;4.702;2023-05-10T06:50:28;13.90;99.90
9564;DHT22;4820;50.870;4.702;2023-05-10T06:52:53;13.90;99.90
9564;DHT22;4820;50.870;4.702;2023-05-10T06:55:20;14.00;99.90
9564;DHT22;4820;50.870;4.702;2023-05-10T06:57:46;14.00;99.90
9564;DHT22;4820;50.870;4.702;2023-05-10T07:00:14;14.00;99.90
9564;DHT22;4820;50.870;4.702;2023-05-10T07:02:40;13.90;99.90
9564;DHT22;4820;50.870;4.702;2023-05-10T07:05:06;13.90;99.90
9564;DHT22;4820;50.870;4.702;2023-05-10T07:07:32;13.90;99.90
9564;DHT22;4820;50.870;4.702;2023-05-10T07:09:57;13.90;99.90
9564;DHT22;4820;50.870;4.702;2023-05-10T07:12:24;13.80;99.90
9564;DHT22;4820;50.870;4.702;2023-05-10T07:14:51;13.90;99.90
9564;DHT22;4820;50.870;4.702;2023-05-10T07:17:16;13.90;99.90
9564;DHT22;4820;50.870;4.702;2023-05-10T07:19:42;14.00;99.90
9564;DHT22;4820;50.870;4.702;2023-05-10T07:22:08;13.90;99.90
9564;DHT22;4820;50.870;4.702;2023-05-10T07:24:34;13.80;99.90
9564;DHT22;4820;50.870;4.702;2023-05-10T07:27:01;13.70;99.90
9564;DHT22;4820;50.870;4.702;2023-05-10T07:29:26;13.70;99.90
9564;DHT22;4820;50.870;4.702;2023-05-10T07:31:52;13.80;99.90
9564;DHT22;4820;50.870;4.702;2023-05-10T07:34:18;13.80;99.90
9564;DHT22;4820;50.870;4.702;2023-05-10T07:36:44;13.80;99.90
9564;DHT22;4820;50.870;4.702;2023-05-10T07:39:10;13.80;99.90
9564;DHT22;4820;50.870;4.702;2023-05-10T07:41:36;13.70;99.90
9564;DHT22;4820;50.870;4.702;2023-05-10T07:44:03;13.60;99.90
9564;DHT22;4820;50.870;4.702;2023-05-10T07:46:29;13.60;99.90
9564;DHT22;4820;50.870;4.702;2023-05-10T07:48:55;13.60;99.90
9564;DHT22;4820;50.870;4.702;2023-05-10T07:51:21;13.60;99.90
9564;DHT22;4820;50.870;4.702;2023-05-10T07:53:47;13.60;99.90
9564;DHT22;4820;50.870;4.702;2023-05-10T07:56:29;13.60;99.90
9564;DHT22;4820;50.870;4.702;2023-05-10T07:58:58;13.50;99.90
9564;DHT22;4820;50.870;4.702;2023-05-10T08:01:24;13.50;99.90
9564;DHT22;4820;50.870;4.702;2023-05-10T08:03:50;13.40;99.90
9564;DHT22;4820;50.870;4.702;2023-05-10T08:06:20;13.40;99.90
9564;DHT22;4820;50.870;4.702;2023-05-10T08:08:47;13.30;99.90
9564;DHT22;4820;50.870;4.702;2023-05-10T08:11:16;13.30;99.90
9564;DHT22;4820;50.870;4.702;2023-05-10T08:13:42;13.40;99.90
9564;DHT22;4820;50.870;4.702;2023-05-10T08:16:07;13.30;99.90
9564;DHT22;4820;50.870;4.702;2023-05-10T08:18:33;13.20;99.90
9564;DHT22;4820;50.870;4.702;2023-05-10T08:20:59;13.20;99.90
9564;DHT22;4820;50.870;4.702;2023-05-10T08:23:24;13.20;99.90
9564;DHT22;4820;50.870;4.702;2023-05-10T08:25:50;13.30;99.90
9564;DHT22;4820;50.870;4.702;2023-05-10T08:28:16;13.30;99.90
9564;DHT22;4820;50.870;4.702;2023-05-10T08:30:44;13.40;99.90
9564;DHT22;4820;50.870;4.702;2023-05-10T08:33:10;13.40;99.90
9564;DHT22;4820;50.870;4.702;2023-05-10T08:35:36;13.50;99.90
9564;DHT22;4820;50.870;4.702;2023-05-10T08:38:01;13.60;99.90
9564;DHT22;4820;50.870;4.702;2023-05-10T08:40:27;13.70;99.90
9564;DHT22;4820;50.870;4.702;2023-05-10T08:43:05;13.70;99.90
9564;DHT22;4820;50.870;4.702;2023-05-10T08:45:38;13.80;99.90
9564;DHT22;4820;50.870;4.702;2023-05-10T08:48:09;13.80;99.90
9564;DHT22;4820;50.870;4.702;2023-05-10T08:50:40;13.80;99.90
9564;DHT22;4820;50.870;4.702;2023-05-10T08:53:11;13.80;99.90
9564;DHT22;4820;50.870;4.702;2023-05-10T08:55:37;13.80;99.90
9564;DHT22;4820;50.870;4.702;2023-05-10T08:58:07;13.80;99.90
9564;DHT22;4820;50.870;4.702;2023-05-10T09:00:33;13.80;99.90
9564;DHT22;4820;50.870;4.702;2023-05-10T09:03:01;13.70;99.90
9564;DHT22;4820;50.870;4.702;2023-05-10T09:05:27;13.70;99.90
9564;DHT22;4820;50.870;4.702;2023-05-10T09:07:53;13.60;99.90
9564;DHT22;4820;50.870;4.702;2023-05-10T09:10:20;13.70;99.90
9564;DHT22;4820;50.870;4.702;2023-05-10T09:12:46;13.60;99.90
9564;DHT22;4820;50.870;4.702;2023-05-10T09:15:15;13.60;99.90
9564;DHT22;4820;50.870;4.702;2023-05-10T09:17:41;13.60;99.90
9564;DHT22;4820;50.870;4.702;2023-05-10T09:20:07;13.70;99.90
9564;DHT22;4820;50.870;4.702;2023-05-10T09:22:34;13.70;99.90
9564;DHT22;4820;50.870;4.702;2023-05-10T09:25:07;13.80;99.90
9564;DHT22;4820;50.870;4.702;2023-05-10T09:27:35;13.90;99.90
9564;DHT22;4820;50.870;4.702;2023-05-10T09:30:02;13.90;99.90
9564;DHT22;4820;50.870;4.702;2023-05-10T09:32:41;13.90;99.90
9564;DHT22;4820;50.870;4.702;2023-05-10T09:35:15;13.90;99.90
9564;DHT22;4820;50.870;4.702;2023-05-10T09:37:42;14.00;99.90
9564;DHT22;4820;50.870;4.702;2023-05-10T09:40:14;14.00;99.90
9564;DHT22;4820;50.870;4.702;2023-05-10T09:42:54;13.90;99.90
9564;DHT22;4820;50.870;4.702;2023-05-10T09:45:25;13.90;99.90
9564;DHT22;4820;50.870;4.702;2023-05-10T09:47:51;13.90;99.90
9564;DHT22;4820;50.870;4.702;2023-05-10T09:50:18;13.90;99.90
9564;DHT22;4820;50.870;4.702;2023-05-10T09:52:51;13.90;99.90
9564;DHT22;4820;50.870;4.702;2023-05-10T09:55:41;13.80;99.90
9564;DHT22;4820;50.870;4.702;2023-05-10T09:58:07;13.80;99.90
9564;DHT22;4820;50.870;4.702;2023-05-10T10:00:43;13.80;99.90
9564;DHT22;4820;50.870;4.702;2023-05-10T10:03:15;13.80;99.90
9564;DHT22;4820;50.870;4.702;2023-05-10T10:05:41;13.80;99.90
9564;DHT22;4820;50.870;4.702;2023-05-10T10:08:12;13.80;99.90
9564;DHT22;4820;50.870;4.702;2023-05-10T10:10:38;13.80;99.90
9564;DHT22;4820;50.870;4.702;2023-05-10T10:13:07;13.80;99.90
9564;DHT22;4820;50.870;4.702;2023-05-10T10:15:34;13.80;99.90
9564;DHT22;4820;50.870;4.702;2023-05-10T10:18:00;13.80;99.90
9564;DHT22;4820;50.870;4.702;2023-05-10T10:20:27;13.80;99.90
9564;DHT22;4820;50.870;4.702;2023-05-10T10:22:53;13.90;99.90
9564;DHT22;4820;50.870;4.702;2023-05-10T10:25:20;14.00;99.90
9564;DHT22;4820;50.870;4.702;2023-05-10T10:30:27;14.10;99.90
9564;DHT22;4820;50.870;4.702;2023-05-10T10:35:53;14.10;99.90
9564;DHT22;4820;50.870;4.702;2023-05-10T10:38:20;14.10;99.90
9564;DHT22;4820;50.870;4.702;2023-05-10T10:40:47;14.10;99.90
9564;DHT22;4820;50.870;4.702;2023-05-10T10:43:24;14.10;99.90
9564;DHT22;4820;50.870;4.702;2023-05-10T10:46:14;14.10;99.90
9564;DHT22;4820;50.870;4.702;2023-05-10T10:48:49;14.20;99.90
9564;DHT22;4820;50.870;4.702;2023-05-10T10:51:16;14.20;99.90
9564;DHT22;4820;50.870;4.702;2023-05-10T10:53:43;14.40;99.90
9564;DHT22;4820;50.870;4.702;2023-05-10T10:56:11;14.40;99.90
9564;DHT22;4820;50.870;4.702;2023-05-10T10:58:39;14.50;99.90
9564;DHT22;4820;50.870;4.702;2023-05-10T11:01:23;14.70;99.90
9564;DHT22;4820;50.870;4.702;2023-05-10T11:06:33;15.10;99.90
9564;DHT22;4820;50.870;4.702;2023-05-10T11:09:08;15.10;99.90
9564;DHT22;4820;50.870;4.702;2023-05-10T11:11:35;15.20;99.90
9564;DHT22;4820;50.870;4.702;2023-05-10T11:14:07;15.20;99.90
9564;DHT22;4820;50.870;4.702;2023-05-10T11:16:43;15.20;99.90
9564;DHT22;4820;50.870;4.702;2023-05-10T11:19:14;15.30;99.90
9564;DHT22;4820;50.870;4.702;2023-05-10T11:24:20;15.40;99.90
9564;DHT22;4820;50.870;4.702;2023-05-10T11:26:48;15.60;99.90
9564;DHT22;4820;50.870;4.702;2023-05-10T11:29:15;15.80;99.90
9564;DHT22;4820;50.870;4.702;2023-05-10T11:31:45;16.00;99.90
9564;DHT22;4820;50.870;4.702;2023-05-10T11:34:31;16.10;99.90
9564;DHT22;4820;50.870;4.702;2023-05-10T11:37:00;16.20;99.90
9564;DHT22;4820;50.870;4.702;2023-05-10T11:39:30;16.30;99.90
9564;DHT22;4820;50.870;4.702;2023-05-10T11:41:58;16.30;99.90
9564;DHT22;4820;50.870;4.702;2023-05-10T11:44:31;16.30;99.90
9564;DHT22;4820;50.870;4.702;2023-05-10T11:47:02;16.30;99.90
9564;DHT22;4820;50.870;4.702;2023-05-10T11:49:28;16.60;99.90
9564;DHT22;4820;50.870;4.702;2023-05-10T11:52:04;16.70;99.90
9564;DHT22;4820;50.870;4.702;2023-05-10T11:54:30;16.60;99.90
9564;DHT22;4820;50.870;4.702;2023-05-10T11:56:56;16.60;99.90
9564;DHT22;4820;50.870;4.702;2023-05-10T11:59:22;16.50;99.90
9564;DHT22;4820;50.870;4.702;2023-05-10T12:01:48;16.40;99.90
9564;DHT22;4820;50.870;4.702;2023-05-10T12:04:14;16.20;99.90
9564;DHT22;4820;50.870;4.702;2023-05-10T12:06:42;16.20;99.90
9564;DHT22;4820;50.870;4.702;2023-05-10T12:09:08;16.20;99.90
9564;DHT22;4820;50.870;4.702;2023-05-10T12:11:37;16.30;99.90
9564;DHT22;4820;50.870;4.702;2023-05-10T12:14:04;16.30;99.90
9564;DHT22;4820;50.870;4.702;2023-05-10T12:16:31;16.40;99.90
9564;DHT22;4820;50.870;4.702;2023-05-10T12:19:00;16.30;99.90
9564;DHT22;4820;50.870;4.702;2023-05-10T12:21:28;16.30;99.90
9564;DHT22;4820;50.870;4.702;2023-05-10T12:23:58;16.30;99.90
9564;DHT22;4820;50.870;4.702;2023-05-10T12:26:24;16.40;99.90
9564;DHT22;4820;50.870;4.702;2023-05-10T12:28:53;16.60;99.90
9564;DHT22;4820;50.870;4.702;2023-05-10T12:31:19;16.80;99.90
9564;DHT22;4820;50.870;4.702;2023-05-10T12:33:45;17.00;99.90
9564;DHT22;4820;50.870;4.702;2023-05-10T12:36:15;17.20;99.90
9564;DHT22;4820;50.870;4.702;2023-05-10T12:38:42;17.20;99.90
9564;DHT22;4820;50.870;4.702;2023-05-10T12:41:17;17.20;99.90
9564;DHT22;4820;50.870;4.702;2023-05-10T12:43:43;17.20;99.90
9564;DHT22;4820;50.870;4.702;2023-05-10T12:46:11;17.20;99.90
9564;DHT22;4820;50.870;4.702;2023-05-10T12:48:38;17.40;99.90
9564;DHT22;4820;50.870;4.702;2023-05-10T12:51:05;17.50;99.90
9564;DHT22;4820;50.870;4.702;2023-05-10T12:53:35;17.60;99.90
9564;DHT22;4820;50.870;4.702;2023-05-10T12:56:01;17.70;99.90
9564;DHT22;4820;50.870;4.702;2023-05-10T12:58:27;17.80;99.90
9564;DHT22;4820;50.870;4.702;2023-05-10T13:00:53;17.70;99.90
9564;DHT22;4820;50.870;4.702;2023-05-10T13:03:19;17.50;99.90
9564;DHT22;4820;50.870;4.702;2023-05-10T13:05:45;17.50;99.90
9564;DHT22;4820;50.870;4.702;2023-05-10T13:08:11;17.60;99.90
9564;DHT22;4820;50.870;4.702;2023-05-10T13:10:37;17.50;99.90
9564;DHT22;4820;50.870;4.702;2023-05-10T13:13:02;17.50;99.90
9564;DHT22;4820;50.870;4.702;2023-05-10T13:15:28;17.50;99.90
9564;DHT22;4820;50.870;4.702;2023-05-10T13:17:54;17.50;99.90
9564;DHT22;4820;50.870;4.702;2023-05-10T13:20:20;17.50;99.90
9564;DHT22;4820;50.870;4.702;2023-05-10T13:22:46;17.40;99.90
9564;DHT22;4820;50.870;4.702;2023-05-10T13:25:12;17.30;99.90
9564;DHT22;4820;50.870;4.702;2023-05-10T13:27:41;17.20;99.90
9564;DHT22;4820;50.870;4.702;2023-05-10T13:30:08;17.10;99.90
9564;DHT22;4820;50.870;4.702;2023-05-10T13:32:34;17.00;99.90
9564;DHT22;4820;50.870;4.702;2023-05-10T13:35:00;16.90;99.90
9564;DHT22;4820;50.870;4.702;2023-05-10T13:37:26;16.90;99.90
9564;DHT22;4820;50.870;4.702;2023-05-10T13:39:51;17.00;99.90
9564;DHT22;4820;50.870;4.702;2023-05-10T13:42:17;17.10;99.90
9564;DHT22;4820;50.870;4.702;2023-05-10T13:44:43;17.10;99.90
9564;DHT22;4820;50.870;4.702;2023-05-10T13:47:09;17.00;99.90
9564;DHT22;4820;50.870;4.702;2023-05-10T13:49:35;17.00;99.90
9564;DHT22;4820;50.870;4.702;2023-05-10T13:52:01;17.00;99.90
9564;DHT22;4820;50.870;4.702;2023-05-10T13:54:38;17.00;99.90
9564;DHT22;4820;50.870;4.702;2023-05-10T13:57:04;17.00;99.90
9564;DHT22;4820;50.870;4.702;2023-05-10T13:59:30;17.00;99.90
9564;DHT22;4820;50.870;4.702;2023-05-10T14:02:00;17.00;99.90
9564;DHT22;4820;50.870;4.702;2023-05-10T14:04:28;17.00;99.90
9564;DHT22;4820;50.870;4.702;2023-05-10T14:06:54;17.00;99.90
9564;DHT22;4820;50.870;4.702;2023-05-10T14:09:20;16.90;99.90
9564;DHT22;4820;50.870;4.702;2023-05-10T14:11:46;16.90;99.90
9564;DHT22;4820;50.870;4.702;2023-05-10T14:14:12;16.90;99.90
9564;DHT22;4820;50.870;4.702;2023-05-10T14:16:42;17.10;99.90
9564;DHT22;4820;50.870;4.702;2023-05-10T14:19:08;17.20;99.90
9564;DHT22;4820;50.870;4.702;2023-05-10T14:21:34;17.30;99.90
9564;DHT22;4820;50.870;4.702;2023-05-10T14:24:00;17.20;99.90
9564;DHT22;4820;50.870;4.702;2023-05-10T14:26:26;17.40;99.90
9564;DHT22;4820;50.870;4.702;2023-05-10T14:28:53;17.50;99.90
9564;DHT22;4820;50.870;4.702;2023-05-10T14:31:19;17.50;99.90
9564;DHT22;4820;50.870;4.702;2023-05-10T14:33:46;17.70;99.90
9564;DHT22;4820;50.870;4.702;2023-05-10T14:36:12;17.80;99.90
9564;DHT22;4820;50.870;4.702;2023-05-10T14:38:39;18.00;99.90
9564;DHT22;4820;50.870;4.702;2023-05-10T14:41:05;18.10;99.90
9564;DHT22;4820;50.870;4.702;2023-05-10T14:43:31;18.00;99.90
9564;DHT22;4820;50.870;4.702;2023-05-10T14:45:57;18.00;99.90
9564;DHT22;4820;50.870;4.702;2023-05-10T14:48:23;18.10;99.90
9564;DHT22;4820;50.870;4.702;2023-05-10T14:50:48;18.00;99.90
9564;DHT22;4820;50.870;4.702;2023-05-10T14:53:15;17.90;99.90
9564;DHT22;4820;50.870;4.702;2023-05-10T14:55:41;17.80;99.90
9564;DHT22;4820;50.870;4.702;2023-05-10T14:58:07;17.70;99.90
9564;DHT22;4820;50.870;4.702;2023-05-10T15:00:32;17.60;99.90
9564;DHT22;4820;50.870;4.702;2023-05-10T15:02:58;17.50;99.90
9564;DHT22;4820;50.870;4.702;2023-05-10T15:05:24;17.40;99.90
9564;DHT22;4820;50.870;4.702;2023-05-10T15:07:50;17.40;99.90
9564;DHT22;4820;50.870;4.702;2023-05-10T15:10:15;17.40;99.90
9564;DHT22;4820;50.870;4.702;2023-05-10T15:12:41;17.50;99.90
9564;DHT22;4820;50.870;4.702;2023-05-10T15:15:07;17.60;99.90
9564;DHT22;4820;50.870;4.702;2023-05-10T15:17:33;17.60;99.90
9564;DHT22;4820;50.870;4.702;2023-05-10T15:20:00;17.60;99.90
9564;DHT22;4820;50.870;4.702;2023-05-10T15:22:27;17.60;99.90
9564;DHT22;4820;50.870;4.702;2023-05-10T15:24:54;17.50;99.90
9564;DHT22;4820;50.870;4.702;2023-05-10T15:27:20;17.50;99.90
9564;DHT22;4820;50.870;4.702;2023-05-10T15:29:45;17.60;99.90
9564;DHT22;4820;50.870;4.702;2023-05-10T15:32:11;17.60;99.90
9564;DHT22;4820;50.870;4.702;2023-05-10T15:34:37;17.60;99.90
9564;DHT22;4820;50.870;4.702;2023-05-10T15:37:03;17.70;99.90
9564;DHT22;4820;50.870;4.702;2023-05-10T15:39:28;17.70;99.90
9564;DHT22;4820;50.870;4.702;2023-05-10T15:41:54;17.70;99.90
9564;DHT22;4820;50.870;4.702;2023-05-10T15:44:20;17.70;99.90
9564;DHT22;4820;50.870;4.702;2023-05-10T15:46:45;17.50;99.90
9564;DHT22;4820;50.870;4.702;2023-05-10T15:49:12;17.20;99.90
9564;DHT22;4820;50.870;4.702;2023-05-10T15:51:39;16.90;99.90
9564;DHT22;4820;50.870;4.702;2023-05-10T15:54:06;16.60;99.90
9564;DHT22;4820;50.870;4.702;2023-05-10T15:56:32;16.40;99.90
9564;DHT22;4820;50.870;4.702;2023-05-10T15:58:58;16.30;99.90
9564;DHT22;4820;50.870;4.702;2023-05-10T16:01:24;16.20;99.90
9564;DHT22;4820;50.870;4.702;2023-05-10T16:03:50;16.10;99.90
9564;DHT22;4820;50.870;4.702;2023-05-10T16:06:16;16.00;99.90
9564;DHT22;4820;50.870;4.702;2023-05-10T16:08:42;15.80;99.90
9564;DHT22;4820;50.870;4.702;2023-05-10T16:11:07;15.60;99.90
9564;DHT22;4820;50.870;4.702;2023-05-10T16:13:33;15.50;99.90
9564;DHT22;4820;50.870;4.702;2023-05-10T16:15:59;15.40;99.90
9564;DHT22;4820;50.870;4.702;2023-05-10T16:18:26;15.30;99.90
9564;DHT22;4820;50.870;4.702;2023-05-10T16:20:52;15.20;99.90
9564;DHT22;4820;50.870;4.702;2023-05-10T16:23:18;15.20;99.90
9564;DHT22;4820;50.870;4.702;2023-05-10T16:25:44;15.10;99.90
9564;DHT22;4820;50.870;4.702;2023-05-10T16:28:09;15.10;99.90
9564;DHT22;4820;50.870;4.702;2023-05-10T16:30:35;15.00;99.90
9564;DHT22;4820;50.870;4.702;2023-05-10T16:33:01;15.00;99.90
9564;DHT22;4820;50.870;4.702;2023-05-10T16:35:27;15.10;99.90
9564;DHT22;4820;50.870;4.702;2023-05-10T16:37:54;15.10;99.90